sensor_id;sensor_type;location;lat;lon;timestamp;temperature;humidity
69546;SHT31;56766;52.260;20.746;2022-07-04T00:01:41;18.22;79.08
69546;SHT31;56766;52.260;20.746;2022-07-04T00:04:08;18.16;79.18
69546;SHT31;56766;52.260;20.746;2022-07-04T00:06:35;18.10;79.15
69546;SHT31;56766;52.260;20.746;2022-07-04T00:09:01;18.13;79.43
69546;SHT31;56766;52.260;20.746;2022-07-04T00:11:28;18.20;79.62
69546;SHT31;56766;52.260;20.746;2022-07-04T00:13:55;18.25;79.63
69546;SHT31;56766;52.260;20.746;2022-07-04T00:16:21;18.27;79.61
69546;SHT31;56766;52.260;20.746;2022-07-04T00:18:48;18.26;79.75
69546;SHT31;56766;52.260;20.746;2022-07-04T00:21:15;18.24;79.70
69546;SHT31;56766;52.260;20.746;2022-07-04T00:23:41;18.20;79.75
69546;SHT31;56766;52.260;20.746;2022-07-04T00:26:08;18.16;79.99
69546;SHT31;56766;52.260;20.746;2022-07-04T00:28:34;18.16;80.22
69546;SHT31;56766;52.260;20.746;2022-07-04T00:31:01;18.15;80.42
69546;SHT31;56766;52.260;20.746;2022-07-04T00:33:28;18.17;80.31
69546;SHT31;56766;52.260;20.746;2022-07-04T00:35:54;18.13;80.39
69546;SHT31;56766;52.260;20.746;2022-07-04T00:38:21;18.10;80.59
69546;SHT31;56766;52.260;20.746;2022-07-04T00:40:47;18.11;80.29
69546;SHT31;56766;52.260;20.746;2022-07-04T00:43:22;18.09;80.24
69546;SHT31;56766;52.260;20.746;2022-07-04T00:45:51;18.09;80.03
69546;SHT31;56766;52.260;20.746;2022-07-04T00:48:18;18.08;79.97
69546;SHT31;56766;52.260;20.746;2022-07-04T00:50:46;18.05;79.80
69546;SHT31;56766;52.260;20.746;2022-07-04T00:53:15;18.03;79.69
69546;SHT31;56766;52.260;20.746;2022-07-04T00:55:44;18.00;79.46
69546;SHT31;56766;52.260;20.746;2022-07-04T00:58:13;17.95;79.48
69546;SHT31;56766;52.260;20.746;2022-07-04T01:00:40;17.86;79.40
69546;SHT31;56766;52.260;20.746;2022-07-04T01:03:07;17.82;79.56
69546;SHT31;56766;52.260;20.746;2022-07-04T01:05:34;17.85;79.58
69546;SHT31;56766;52.260;20.746;2022-07-04T01:08:01;17.86;79.32
69546;SHT31;56766;52.260;20.746;2022-07-04T01:10:28;17.89;79.30
69546;SHT31;56766;52.260;20.746;2022-07-04T01:12:55;17.89;79.29
69546;SHT31;56766;52.260;20.746;2022-07-04T01:15:22;17.88;79.40
69546;SHT31;56766;52.260;20.746;2022-07-04T01:17:49;17.81;79.48
69546;SHT31;56766;52.260;20.746;2022-07-04T01:20:16;17.74;79.42
69546;SHT31;56766;52.260;20.746;2022-07-04T01:22:44;17.71;79.32
69546;SHT31;56766;52.260;20.746;2022-07-04T01:25:10;17.71;79.43
69546;SHT31;56766;52.260;20.746;2022-07-04T01:27:37;17.75;79.57
69546;SHT31;56766;52.260;20.746;2022-07-04T01:30:04;17.74;79.71
69546;SHT31;56766;52.260;20.746;2022-07-04T01:32:31;17.69;79.76
69546;SHT31;56766;52.260;20.746;2022-07-04T01:34:58;17.66;79.82
69546;SHT31;56766;52.260;20.746;2022-07-04T01:37:24;17.65;79.86
69546;SHT31;56766;52.260;20.746;2022-07-04T01:39:51;17.59;79.83
69546;SHT31;56766;52.260;20.746;2022-07-04T01:42:18;17.55;79.75
69546;SHT31;56766;52.260;20.746;2022-07-04T01:44:44;17.49;79.75
69546;SHT31;56766;52.260;20.746;2022-07-04T01:47:11;17.47;79.88
69546;SHT31;56766;52.260;20.746;2022-07-04T01:49:37;17.47;79.86
69546;SHT31;56766;52.260;20.746;2022-07-04T01:52:04;17.42;79.89
69546;SHT31;56766;52.260;20.746;2022-07-04T01:54:31;17.38;80.05
69546;SHT31;56766;52.260;20.746;2022-07-04T01:56:58;17.33;80.16
69546;SHT31;56766;52.260;20.746;2022-07-04T01:59:24;17.31;80.22
69546;SHT31;56766;52.260;20.746;2022-07-04T02:02:11;17.30;80.13
69546;SHT31;56766;52.260;20.746;2022-07-04T02:04:38;17.26;80.14
69546;SHT31;56766;52.260;20.746;2022-07-04T02:07:04;17.28;80.36
69546;SHT31;56766;52.260;20.746;2022-07-04T02:09:31;17.37;80.22
69546;SHT31;56766;52.260;20.746;2022-07-04T02:11:58;17.34;80.40
69546;SHT31;56766;52.260;20.746;2022-07-04T02:15:20;17.31;80.17
69546;SHT31;56766;52.260;20.746;2022-07-04T02:17:47;17.29;80.34
69546;SHT31;56766;52.260;20.746;2022-07-04T02:20:14;17.29;80.83
69546;SHT31;56766;52.260;20.746;2022-07-04T02:22:41;17.30;80.59
69546;SHT31;56766;52.260;20.746;2022-07-04T02:25:07;17.29;80.69
69546;SHT31;56766;52.260;20.746;2022-07-04T02:27:34;17.27;80.50
69546;SHT31;56766;52.260;20.746;2022-07-04T02:30:01;17.35;80.46
69546;SHT31;56766;52.260;20.746;2022-07-04T02:32:28;17.41;80.37
69546;SHT31;56766;52.260;20.746;2022-07-04T02:34:55;17.49;80.28
69546;SHT31;56766;52.260;20.746;2022-07-04T02:37:22;17.52;80.17
69546;SHT31;56766;52.260;20.746;2022-07-04T02:39:48;17.53;80.37
69546;SHT31;56766;52.260;20.746;2022-07-04T02:42:15;17.45;80.56
69546;SHT31;56766;52.260;20.746;2022-07-04T02:44:41;17.39;80.44
69546;SHT31;56766;52.260;20.746;2022-07-04T02:47:10;17.39;80.35
69546;SHT31;56766;52.260;20.746;2022-07-04T02:49:36;17.45;80.13
69546;SHT31;56766;52.260;20.746;2022-07-04T02:52:03;17.42;80.03
69546;SHT31;56766;52.260;20.746;2022-07-04T02:54:30;17.43;79.99
69546;SHT31;56766;52.260;20.746;2022-07-04T02:56:57;17.41;80.07
69546;SHT31;56766;52.260;20.746;2022-07-04T02:59:24;17.45;80.12
69546;SHT31;56766;52.260;20.746;2022-07-04T03:01:50;17.44;80.27
69546;SHT31;56766;52.260;20.746;2022-07-04T03:04:17;17.42;80.16
69546;SHT31;56766;52.260;20.746;2022-07-04T03:06:44;17.41;80.47
69546;SHT31;56766;52.260;20.746;2022-07-04T03:09:10;17.51;80.62
69546;SHT31;56766;52.260;20.746;2022-07-04T03:11:37;17.61;80.46
69546;SHT31;56766;52.260;20.746;2022-07-04T03:14:03;17.75;80.18
69546;SHT31;56766;52.260;20.746;2022-07-04T03:16:30;17.83;80.04
69546;SHT31;56766;52.260;20.746;2022-07-04T03:18:57;17.90;79.83
69546;SHT31;56766;52.260;20.746;2022-07-04T03:21:23;17.95;79.64
69546;SHT31;56766;52.260;20.746;2022-07-04T03:23:50;18.00;79.53
69546;SHT31;56766;52.260;20.746;2022-07-04T03:26:28;18.06;79.38
69546;SHT31;56766;52.260;20.746;2022-07-04T03:28:58;18.16;79.37
69546;SHT31;56766;52.260;20.746;2022-07-04T03:31:27;18.50;79.58
69546;SHT31;56766;52.260;20.746;2022-07-04T03:33:55;19.18;79.31
69546;SHT31;56766;52.260;20.746;2022-07-04T03:36:21;19.92;78.13
69546;SHT31;56766;52.260;20.746;2022-07-04T03:38:48;20.64;76.89
69546;SHT31;56766;52.260;20.746;2022-07-04T03:41:15;21.15;76.63
69546;SHT31;56766;52.260;20.746;2022-07-04T03:43:42;21.62;75.90
69546;SHT31;56766;52.260;20.746;2022-07-04T03:46:08;22.06;75.30
69546;SHT31;56766;52.260;20.746;2022-07-04T03:48:35;22.54;74.53
69546;SHT31;56766;52.260;20.746;2022-07-04T03:51:02;23.04;73.30
69546;SHT31;56766;52.260;20.746;2022-07-04T03:53:29;23.35;72.08
69546;SHT31;56766;52.260;20.746;2022-07-04T03:55:55;23.35;71.23
69546;SHT31;56766;52.260;20.746;2022-07-04T03:58:22;23.24;70.80
69546;SHT31;56766;52.260;20.746;2022-07-04T04:00:48;23.12;70.49
69546;SHT31;56766;52.260;20.746;2022-07-04T04:03:15;22.98;70.35
69546;SHT31;56766;52.260;20.746;2022-07-04T04:06:22;22.82;70.36
69546;SHT31;56766;52.260;20.746;2022-07-04T04:08:49;22.68;70.69
69546;SHT31;56766;52.260;20.746;2022-07-04T04:11:15;22.60;70.92
69546;SHT31;56766;52.260;20.746;2022-07-04T04:13:42;22.55;70.98
69546;SHT31;56766;52.260;20.746;2022-07-04T04:16:10;22.43;71.09
69546;SHT31;56766;52.260;20.746;2022-07-04T04:18:36;22.35;71.33
69546;SHT31;56766;52.260;20.746;2022-07-04T04:21:04;22.41;71.46
69546;SHT31;56766;52.260;20.746;2022-07-04T04:23:31;22.68;71.43
69546;SHT31;56766;52.260;20.746;2022-07-04T04:25:58;22.95;71.13
69546;SHT31;56766;52.260;20.746;2022-07-04T04:28:25;23.18;71.07
69546;SHT31;56766;52.260;20.746;2022-07-04T04:30:51;23.48;70.97
69546;SHT31;56766;52.260;20.746;2022-07-04T04:33:18;23.76;70.98
69546;SHT31;56766;52.260;20.746;2022-07-04T04:35:44;24.11;70.23
69546;SHT31;56766;52.260;20.746;2022-07-04T04:38:11;24.44;69.59
69546;SHT31;56766;52.260;20.746;2022-07-04T04:40:38;24.76;69.16
69546;SHT31;56766;52.260;20.746;2022-07-04T04:43:04;25.00;68.49
69546;SHT31;56766;52.260;20.746;2022-07-04T04:45:31;25.28;67.84
69546;SHT31;56766;52.260;20.746;2022-07-04T04:47:57;25.56;67.02
69546;SHT31;56766;52.260;20.746;2022-07-04T04:50:24;25.93;65.88
69546;SHT31;56766;52.260;20.746;2022-07-04T04:52:51;26.21;65.22
69546;SHT31;56766;52.260;20.746;2022-07-04T04:55:17;26.36;64.67
69546;SHT31;56766;52.260;20.746;2022-07-04T04:57:44;26.60;63.98
69546;SHT31;56766;52.260;20.746;2022-07-04T05:00:11;26.79;63.19
69546;SHT31;56766;52.260;20.746;2022-07-04T05:02:38;26.90;63.02
69546;SHT31;56766;52.260;20.746;2022-07-04T05:05:06;26.89;63.00
69546;SHT31;56766;52.260;20.746;2022-07-04T05:07:33;26.88;63.09
69546;SHT31;56766;52.260;20.746;2022-07-04T05:10:00;26.89;63.27
69546;SHT31;56766;52.260;20.746;2022-07-04T05:12:28;26.97;62.64
69546;SHT31;56766;52.260;20.746;2022-07-04T05:14:55;27.00;62.68
69546;SHT31;56766;52.260;20.746;2022-07-04T05:17:22;27.06;62.31
69546;SHT31;56766;52.260;20.746;2022-07-04T05:19:50;27.12;62.14
69546;SHT31;56766;52.260;20.746;2022-07-04T05:22:17;27.23;61.69
69546;SHT31;56766;52.260;20.746;2022-07-04T05:24:44;27.38;61.11
69546;SHT31;56766;52.260;20.746;2022-07-04T05:27:10;27.42;60.96
69546;SHT31;56766;52.260;20.746;2022-07-04T05:29:37;27.38;60.85
69546;SHT31;56766;52.260;20.746;2022-07-04T05:32:05;27.27;61.14
69546;SHT31;56766;52.260;20.746;2022-07-04T05:34:32;27.20;61.22
69546;SHT31;56766;52.260;20.746;2022-07-04T05:36:59;27.12;61.30
69546;SHT31;56766;52.260;20.746;2022-07-04T05:39:26;27.03;61.27
69546;SHT31;56766;52.260;20.746;2022-07-04T05:41:52;26.94;61.47
69546;SHT31;56766;52.260;20.746;2022-07-04T05:44:19;26.92;61.68
69546;SHT31;56766;52.260;20.746;2022-07-04T05:46:46;26.90;61.61
69546;SHT31;56766;52.260;20.746;2022-07-04T05:49:13;26.88;61.71
69546;SHT31;56766;52.260;20.746;2022-07-04T05:51:40;26.84;61.78
69546;SHT31;56766;52.260;20.746;2022-07-04T05:54:06;26.81;61.96
69546;SHT31;56766;52.260;20.746;2022-07-04T05:56:33;26.81;61.87
69546;SHT31;56766;52.260;20.746;2022-07-04T05:58:59;26.80;61.64
69546;SHT31;56766;52.260;20.746;2022-07-04T06:01:26;26.85;61.58
69546;SHT31;56766;52.260;20.746;2022-07-04T06:03:53;26.84;61.58
69546;SHT31;56766;52.260;20.746;2022-07-04T06:06:19;26.81;61.56
69546;SHT31;56766;52.260;20.746;2022-07-04T06:08:46;26.75;61.69
69546;SHT31;56766;52.260;20.746;2022-07-04T06:11:12;26.71;61.81
69546;SHT31;56766;52.260;20.746;2022-07-04T06:13:40;26.74;61.71
69546;SHT31;56766;52.260;20.746;2022-07-04T06:16:07;26.75;61.34
69546;SHT31;56766;52.260;20.746;2022-07-04T06:18:33;26.72;61.10
69546;SHT31;56766;52.260;20.746;2022-07-04T06:21:00;26.68;61.04
69546;SHT31;56766;52.260;20.746;2022-07-04T06:23:27;26.64;61.28
69546;SHT31;56766;52.260;20.746;2022-07-04T06:25:54;26.59;61.32
69546;SHT31;56766;52.260;20.746;2022-07-04T06:28:20;26.55;61.31
69546;SHT31;56766;52.260;20.746;2022-07-04T06:30:47;26.52;61.56
69546;SHT31;56766;52.260;20.746;2022-07-04T06:33:14;26.51;61.69
69546;SHT31;56766;52.260;20.746;2022-07-04T06:35:40;26.51;61.68
69546;SHT31;56766;52.260;20.746;2022-07-04T06:38:25;26.50;61.35
69546;SHT31;56766;52.260;20.746;2022-07-04T06:40:56;26.51;60.87
69546;SHT31;56766;52.260;20.746;2022-07-04T06:43:25;26.47;59.63
69546;SHT31;56766;52.260;20.746;2022-07-04T06:45:52;26.41;60.79
69546;SHT31;56766;52.260;20.746;2022-07-04T06:48:19;26.39;61.21
69546;SHT31;56766;52.260;20.746;2022-07-04T06:50:47;26.38;60.54
69546;SHT31;56766;52.260;20.746;2022-07-04T06:53:14;26.34;60.31
69546;SHT31;56766;52.260;20.746;2022-07-04T06:55:41;26.30;60.12
69546;SHT31;56766;52.260;20.746;2022-07-04T06:58:09;26.22;60.64
69546;SHT31;56766;52.260;20.746;2022-07-04T07:00:38;26.11;60.25
69546;SHT31;56766;52.260;20.746;2022-07-04T07:03:05;26.05;60.74
69546;SHT31;56766;52.260;20.746;2022-07-04T07:05:32;26.06;61.00
69546;SHT31;56766;52.260;20.746;2022-07-04T07:07:58;26.09;60.71
69546;SHT31;56766;52.260;20.746;2022-07-04T07:10:25;26.13;60.71
69546;SHT31;56766;52.260;20.746;2022-07-04T07:12:52;26.16;60.69
69546;SHT31;56766;52.260;20.746;2022-07-04T07:15:18;26.21;60.10
69546;SHT31;56766;52.260;20.746;2022-07-04T07:17:46;26.27;60.70
69546;SHT31;56766;52.260;20.746;2022-07-04T07:20:13;26.29;60.28
69546;SHT31;56766;52.260;20.746;2022-07-04T07:22:40;26.32;60.21
69546;SHT31;56766;52.260;20.746;2022-07-04T07:25:09;26.38;60.05
69546;SHT31;56766;52.260;20.746;2022-07-04T07:27:38;26.41;58.12
69546;SHT31;56766;52.260;20.746;2022-07-04T07:30:06;26.39;58.16
69546;SHT31;56766;52.260;20.746;2022-07-04T07:32:33;26.43;59.65
69546;SHT31;56766;52.260;20.746;2022-07-04T07:35:00;26.54;60.47
69546;SHT31;56766;52.260;20.746;2022-07-04T07:37:27;26.68;61.07
69546;SHT31;56766;52.260;20.746;2022-07-04T07:39:54;26.83;60.81
69546;SHT31;56766;52.260;20.746;2022-07-04T07:42:23;26.93;60.21
69546;SHT31;56766;52.260;20.746;2022-07-04T07:44:52;26.93;59.97
69546;SHT31;56766;52.260;20.746;2022-07-04T07:47:19;26.99;60.05
69546;SHT31;56766;52.260;20.746;2022-07-04T07:49:46;27.08;59.84
69546;SHT31;56766;52.260;20.746;2022-07-04T07:52:14;27.19;60.27
69546;SHT31;56766;52.260;20.746;2022-07-04T07:54:42;27.34;59.57
69546;SHT31;56766;52.260;20.746;2022-07-04T07:57:08;27.42;57.42
69546;SHT31;56766;52.260;20.746;2022-07-04T07:59:35;27.49;57.16
69546;SHT31;56766;52.260;20.746;2022-07-04T08:02:02;27.54;56.07
69546;SHT31;56766;52.260;20.746;2022-07-04T08:04:29;27.47;54.38
69546;SHT31;56766;52.260;20.746;2022-07-04T08:07:04;27.42;55.39
69546;SHT31;56766;52.260;20.746;2022-07-04T08:09:33;27.55;57.43
69546;SHT31;56766;52.260;20.746;2022-07-04T08:12:03;27.79;57.06
69546;SHT31;56766;52.260;20.746;2022-07-04T08:14:32;28.00;56.44
69546;SHT31;56766;52.260;20.746;2022-07-04T08:17:01;28.24;56.09
69546;SHT31;56766;52.260;20.746;2022-07-04T08:19:28;28.43;55.00
69546;SHT31;56766;52.260;20.746;2022-07-04T08:21:54;28.57;53.62
69546;SHT31;56766;52.260;20.746;2022-07-04T08:24:21;28.67;54.33
69546;SHT31;56766;52.260;20.746;2022-07-04T08:26:48;28.85;53.75
69546;SHT31;56766;52.260;20.746;2022-07-04T08:29:15;28.86;51.92
69546;SHT31;56766;52.260;20.746;2022-07-04T08:31:42;28.84;52.96
69546;SHT31;56766;52.260;20.746;2022-07-04T08:34:08;29.04;53.71
69546;SHT31;56766;52.260;20.746;2022-07-04T08:36:35;29.23;51.76
69546;SHT31;56766;52.260;20.746;2022-07-04T08:39:02;29.34;50.96
69546;SHT31;56766;52.260;20.746;2022-07-04T08:41:36;29.50;51.72
69546;SHT31;56766;52.260;20.746;2022-07-04T08:44:07;29.60;49.30
69546;SHT31;56766;52.260;20.746;2022-07-04T08:46:41;29.60;48.52
69546;SHT31;56766;52.260;20.746;2022-07-04T08:49:21;29.74;49.84
69546;SHT31;56766;52.260;20.746;2022-07-04T08:51:54;29.96;49.72
69546;SHT31;56766;52.260;20.746;2022-07-04T08:54:26;30.13;49.42
69546;SHT31;56766;52.260;20.746;2022-07-04T08:57:15;30.39;49.17
69546;SHT31;56766;52.260;20.746;2022-07-04T09:00:03;30.53;48.00
69546;SHT31;56766;52.260;20.746;2022-07-04T09:02:34;30.65;47.74
69546;SHT31;56766;52.260;20.746;2022-07-04T09:05:04;30.59;45.54
69546;SHT31;56766;52.260;20.746;2022-07-04T09:07:32;30.51;45.91
69546;SHT31;56766;52.260;20.746;2022-07-04T09:09:59;30.58;47.46
69546;SHT31;56766;52.260;20.746;2022-07-04T09:12:29;30.57;47.68
69546;SHT31;56766;52.260;20.746;2022-07-04T09:14:56;30.28;46.68
69546;SHT31;56766;52.260;20.746;2022-07-04T09:17:23;30.31;47.89
69546;SHT31;56766;52.260;20.746;2022-07-04T09:20:10;30.55;46.91
69546;SHT31;56766;52.260;20.746;2022-07-04T09:22:37;30.67;42.88
69546;SHT31;56766;52.260;20.746;2022-07-04T09:25:05;30.53;41.22
69546;SHT31;56766;52.260;20.746;2022-07-04T09:27:38;30.49;43.05
69546;SHT31;56766;52.260;20.746;2022-07-04T09:30:08;30.71;45.22
69546;SHT31;56766;52.260;20.746;2022-07-04T09:32:36;30.80;45.90
69546;SHT31;56766;52.260;20.746;2022-07-04T09:35:10;31.00;45.61
69546;SHT31;56766;52.260;20.746;2022-07-04T09:37:44;31.04;46.00
69546;SHT31;56766;52.260;20.746;2022-07-04T09:40:31;30.98;44.40
69546;SHT31;56766;52.260;20.746;2022-07-04T09:43:21;31.04;44.86
69546;SHT31;56766;52.260;20.746;2022-07-04T09:46:00;31.19;44.53
69546;SHT31;56766;52.260;20.746;2022-07-04T09:48:48;31.23;43.43
69546;SHT31;56766;52.260;20.746;2022-07-04T09:51:38;31.29;43.72
69546;SHT31;56766;52.260;20.746;2022-07-04T09:54:23;31.28;44.54
69546;SHT31;56766;52.260;20.746;2022-07-04T09:57:03;31.28;43.85
69546;SHT31;56766;52.260;20.746;2022-07-04T09:59:30;31.28;44.48
69546;SHT31;56766;52.260;20.746;2022-07-04T10:02:09;31.41;45.36
69546;SHT31;56766;52.260;20.746;2022-07-04T10:04:50;31.51;43.85
69546;SHT31;56766;52.260;20.746;2022-07-04T10:07:38;31.51;43.45
69546;SHT31;56766;52.260;20.746;2022-07-04T10:10:40;31.58;43.41
69546;SHT31;56766;52.260;20.746;2022-07-04T10:13:09;31.56;42.41
69546;SHT31;56766;52.260;20.746;2022-07-04T10:15:41;31.66;43.70
69546;SHT31;56766;52.260;20.746;2022-07-04T10:18:27;31.77;41.70
69546;SHT31;56766;52.260;20.746;2022-07-04T10:20:56;31.80;41.46
69546;SHT31;56766;52.260;20.746;2022-07-04T10:23:24;31.83;41.90
69546;SHT31;56766;52.260;20.746;2022-07-04T10:25:58;32.00;43.19
69546;SHT31;56766;52.260;20.746;2022-07-04T10:28:26;32.13;41.61
69546;SHT31;56766;52.260;20.746;2022-07-04T10:30:56;32.13;40.79
69546;SHT31;56766;52.260;20.746;2022-07-04T10:33:27;32.18;41.85
69546;SHT31;56766;52.260;20.746;2022-07-04T10:36:01;32.38;42.88
69546;SHT31;56766;52.260;20.746;2022-07-04T10:38:35;32.56;42.59
69546;SHT31;56766;52.260;20.746;2022-07-04T10:41:15;32.73;42.51
69546;SHT31;56766;52.260;20.746;2022-07-04T10:54:17;33.15;41.37
69546;SHT31;56766;52.260;20.746;2022-07-04T11:02:31;33.29;42.39
69546;SHT31;56766;52.260;20.746;2022-07-04T11:05:12;33.23;40.85
69546;SHT31;56766;52.260;20.746;2022-07-04T11:17:58;32.72;40.65
69546;SHT31;56766;52.260;20.746;2022-07-04T11:20:33;32.68;39.69
69546;SHT31;56766;52.260;20.746;2022-07-04T11:23:17;32.67;41.89
69546;SHT31;56766;52.260;20.746;2022-07-04T11:25:49;32.77;42.03
69546;SHT31;56766;52.260;20.746;2022-07-04T11:28:27;32.84;41.47
69546;SHT31;56766;52.260;20.746;2022-07-04T11:30:59;32.90;40.99
69546;SHT31;56766;52.260;20.746;2022-07-04T11:33:31;32.98;40.84
69546;SHT31;56766;52.260;20.746;2022-07-04T11:36:17;33.00;39.20
69546;SHT31;56766;52.260;20.746;2022-07-04T11:38:56;33.01;39.09
69546;SHT31;56766;52.260;20.746;2022-07-04T11:44:16;33.15;40.97
69546;SHT31;56766;52.260;20.746;2022-07-04T11:47:10;33.20;40.80
69546;SHT31;56766;52.260;20.746;2022-07-04T11:52:22;33.30;39.65
69546;SHT31;56766;52.260;20.746;2022-07-04T11:54:52;33.34;39.81
69546;SHT31;56766;52.260;20.746;2022-07-04T11:57:26;33.31;38.95
69546;SHT31;56766;52.260;20.746;2022-07-04T12:00:01;33.15;36.76
69546;SHT31;56766;52.260;20.746;2022-07-04T12:02:36;32.99;39.03
69546;SHT31;56766;52.260;20.746;2022-07-04T12:05:10;33.06;38.64
69546;SHT31;56766;52.260;20.746;2022-07-04T12:07:40;33.06;38.53
69546;SHT31;56766;52.260;20.746;2022-07-04T12:10:17;33.03;39.82
69546;SHT31;56766;52.260;20.746;2022-07-04T12:13:06;32.94;39.22
69546;SHT31;56766;52.260;20.746;2022-07-04T12:15:41;32.87;38.97
69546;SHT31;56766;52.260;20.746;2022-07-04T12:18:25;32.84;38.21
69546;SHT31;56766;52.260;20.746;2022-07-04T12:21:15;32.72;39.73
69546;SHT31;56766;52.260;20.746;2022-07-04T12:23:53;32.51;38.81
69546;SHT31;56766;52.260;20.746;2022-07-04T12:26:20;32.33;39.19
69546;SHT31;56766;52.260;20.746;2022-07-04T12:28:47;32.28;39.65
69546;SHT31;56766;52.260;20.746;2022-07-04T12:31:14;32.26;40.36
69546;SHT31;56766;52.260;20.746;2022-07-04T12:33:54;32.24;41.40
69546;SHT31;56766;52.260;20.746;2022-07-04T12:36:23;32.28;42.56
69546;SHT31;56766;52.260;20.746;2022-07-04T12:38:50;32.22;41.67
69546;SHT31;56766;52.260;20.746;2022-07-04T12:41:17;32.21;41.37
69546;SHT31;56766;52.260;20.746;2022-07-04T12:43:49;32.18;41.40
69546;SHT31;56766;52.260;20.746;2022-07-04T12:48:51;31.99;42.49
69546;SHT31;56766;52.260;20.746;2022-07-04T12:51:24;31.92;43.34
69546;SHT31;56766;52.260;20.746;2022-07-04T12:53:55;31.96;44.08
69546;SHT31;56766;52.260;20.746;2022-07-04T12:59:01;32.28;41.91
69546;SHT31;56766;52.260;20.746;2022-07-04T13:01:32;32.28;42.28
69546;SHT31;56766;52.260;20.746;2022-07-04T13:04:00;32.38;42.39
69546;SHT31;56766;52.260;20.746;2022-07-04T13:06:27;32.47;41.95
69546;SHT31;56766;52.260;20.746;2022-07-04T13:08:55;32.57;42.78
69546;SHT31;56766;52.260;20.746;2022-07-04T13:11:23;32.63;42.15
69546;SHT31;56766;52.260;20.746;2022-07-04T13:14:09;32.49;40.51
69546;SHT31;56766;52.260;20.746;2022-07-04T13:16:36;32.40;40.99
69546;SHT31;56766;52.260;20.746;2022-07-04T13:19:03;32.40;41.34
69546;SHT31;56766;52.260;20.746;2022-07-04T13:21:30;32.30;41.94
69546;SHT31;56766;52.260;20.746;2022-07-04T13:23:57;32.21;41.13
69546;SHT31;56766;52.260;20.746;2022-07-04T13:26:23;32.15;41.58
69546;SHT31;56766;52.260;20.746;2022-07-04T13:28:51;32.20;42.33
69546;SHT31;56766;52.260;20.746;2022-07-04T13:31:18;32.23;41.78
69546;SHT31;56766;52.260;20.746;2022-07-04T13:33:45;32.29;42.50
69546;SHT31;56766;52.260;20.746;2022-07-04T13:36:11;32.34;42.17
69546;SHT31;56766;52.260;20.746;2022-07-04T13:38:40;32.37;41.64
69546;SHT31;56766;52.260;20.746;2022-07-04T13:41:07;32.30;39.75
69546;SHT31;56766;52.260;20.746;2022-07-04T13:43:34;32.16;38.53
69546;SHT31;56766;52.260;20.746;2022-07-04T13:46:00;31.99;40.54
69546;SHT31;56766;52.260;20.746;2022-07-04T13:48:27;31.96;41.10
69546;SHT31;56766;52.260;20.746;2022-07-04T13:50:54;31.91;39.84
69546;SHT31;56766;52.260;20.746;2022-07-04T13:53:23;31.71;40.50
69546;SHT31;56766;52.260;20.746;2022-07-04T13:55:49;31.60;40.95
69546;SHT31;56766;52.260;20.746;2022-07-04T13:58:16;31.68;42.54
69546;SHT31;56766;52.260;20.746;2022-07-04T14:00:44;31.87;42.37
69546;SHT31;56766;52.260;20.746;2022-07-04T14:03:12;32.03;41.32
69546;SHT31;56766;52.260;20.746;2022-07-04T14:05:43;32.09;41.60
69546;SHT31;56766;52.260;20.746;2022-07-04T14:08:10;32.09;41.72
69546;SHT31;56766;52.260;20.746;2022-07-04T14:10:37;32.02;41.51
69546;SHT31;56766;52.260;20.746;2022-07-04T14:13:03;31.96;41.44
69546;SHT31;56766;52.260;20.746;2022-07-04T14:15:30;31.98;41.36
69546;SHT31;56766;52.260;20.746;2022-07-04T14:17:57;31.95;41.87
69546;SHT31;56766;52.260;20.746;2022-07-04T14:20:23;31.78;42.00
69546;SHT31;56766;52.260;20.746;2022-07-04T14:22:50;31.58;41.71
69546;SHT31;56766;52.260;20.746;2022-07-04T14:25:17;31.47;41.97
69546;SHT31;56766;52.260;20.746;2022-07-04T14:27:43;31.44;41.99
69546;SHT31;56766;52.260;20.746;2022-07-04T14:30:10;31.48;41.34
69546;SHT31;56766;52.260;20.746;2022-07-04T14:32:37;31.53;42.43
69546;SHT31;56766;52.260;20.746;2022-07-04T14:35:04;31.46;42.58
69546;SHT31;56766;52.260;20.746;2022-07-04T14:37:31;31.36;42.48
69546;SHT31;56766;52.260;20.746;2022-07-04T14:39:58;31.14;43.23
69546;SHT31;56766;52.260;20.746;2022-07-04T14:42:24;30.93;43.20
69546;SHT31;56766;52.260;20.746;2022-07-04T14:44:51;30.67;43.71
69546;SHT31;56766;52.260;20.746;2022-07-04T14:47:17;30.46;44.59
69546;SHT31;56766;52.260;20.746;2022-07-04T14:49:44;30.29;45.35
69546;SHT31;56766;52.260;20.746;2022-07-04T14:52:11;30.20;46.19
69546;SHT31;56766;52.260;20.746;2022-07-04T14:54:38;30.16;46.80
69546;SHT31;56766;52.260;20.746;2022-07-04T14:57:04;30.10;47.37
69546;SHT31;56766;52.260;20.746;2022-07-04T14:59:34;30.03;47.86
69546;SHT31;56766;52.260;20.746;2022-07-04T15:02:04;29.96;48.08
69546;SHT31;56766;52.260;20.746;2022-07-04T15:04:31;29.89;48.69
69546;SHT31;56766;52.260;20.746;2022-07-04T15:06:58;29.71;49.23
69546;SHT31;56766;52.260;20.746;2022-07-04T15:09:25;29.54;49.73
69546;SHT31;56766;52.260;20.746;2022-07-04T15:11:53;29.48;49.60
69546;SHT31;56766;52.260;20.746;2022-07-04T15:14:19;29.49;48.70
69546;SHT31;56766;52.260;20.746;2022-07-04T15:16:46;29.80;47.34
69546;SHT31;56766;52.260;20.746;2022-07-04T15:19:13;30.26;46.39
69546;SHT31;56766;52.260;20.746;2022-07-04T15:21:40;30.59;45.81
69546;SHT31;56766;52.260;20.746;2022-07-04T15:24:26;30.93;45.20
69546;SHT31;56766;52.260;20.746;2022-07-04T15:26:52;31.04;45.08
69546;SHT31;56766;52.260;20.746;2022-07-04T15:29:23;30.88;45.07
69546;SHT31;56766;52.260;20.746;2022-07-04T15:31:51;30.66;45.65
69546;SHT31;56766;52.260;20.746;2022-07-04T15:34:18;30.46;46.27
69546;SHT31;56766;52.260;20.746;2022-07-04T15:36:46;30.44;46.96
69546;SHT31;56766;52.260;20.746;2022-07-04T15:39:16;30.49;47.19
69546;SHT31;56766;52.260;20.746;2022-07-04T15:41:44;30.46;47.26
69546;SHT31;56766;52.260;20.746;2022-07-04T15:44:12;30.40;47.51
69546;SHT31;56766;52.260;20.746;2022-07-04T15:46:39;30.28;48.10
69546;SHT31;56766;52.260;20.746;2022-07-04T15:49:47;30.15;49.16
69546;SHT31;56766;52.260;20.746;2022-07-04T15:52:13;30.05;49.31
69546;SHT31;56766;52.260;20.746;2022-07-04T15:54:40;29.93;49.59
69546;SHT31;56766;52.260;20.746;2022-07-04T15:57:06;29.87;49.50
69546;SHT31;56766;52.260;20.746;2022-07-04T15:59:33;29.89;49.52
69546;SHT31;56766;52.260;20.746;2022-07-04T16:02:00;29.92;49.86
69546;SHT31;56766;52.260;20.746;2022-07-04T16:04:27;29.98;49.81
69546;SHT31;56766;52.260;20.746;2022-07-04T16:06:53;30.01;49.86